Time;durP1;ratioP1;P1;durP2;ratioP2;P2;SDS_P1;SDS_P2;PMS_P1;PMS_P2;Temp;Humidity;BMP_temperature;BMP_pressure;BME280_temperature;BME280_humidity;BME280_pressure;Samples;Min_cycle;Max_cycle;Signal;HPM_P1;HPM_P2
2022/11/10 00:00:04;;;;;;;1.63;1.53;;;17.90;69.20;19.10;100970.00;;;;5008311;28;20195;-51
2022/11/10 00:02:30;;;;;;;1.70;1.60;;;17.90;69.20;19.10;100972.00;;;;4988090;28;20540;-52
2022/11/10 00:04:56;;;;;;;1.60;1.50;;;17.90;69.20;19.10;100971.00;;;;4988901;28;20171;-50
2022/11/10 00:07:25;;;;;;;1.60;1.50;;;17.90;69.20;19.10;100977.00;;;;5006910;28;20228;-49
2022/11/10 00:09:51;;;;;;;2.57;1.60;;;17.90;69.30;19.10;100977.00;;;;5006699;28;20604;-49
2022/11/10 00:12:18;;;;;;;2.17;1.63;;;17.90;69.40;19.10;100983.00;;;;5007288;28;20171;-50
2022/11/10 00:17:28;;;;;;;1.70;1.60;;;17.90;69.80;19.00;100984.00;;;;5006799;28;20222;-51
2022/11/10 00:19:54;;;;;;;2.20;1.63;;;17.90;69.80;19.10;100991.00;;;;5007916;28;20636;-51
2022/11/10 00:22:19;;;;;;;4.30;1.70;;;17.90;69.80;19.00;100985.00;;;;5008169;28;20175;-51
2022/11/10 00:24:45;;;;;;;2.00;1.50;;;17.90;69.80;19.00;100987.00;;;;5008055;28;20275;-50
2022/11/10 00:27:13;;;;;;;1.67;1.57;;;17.90;69.80;19.00;101001.00;;;;4990232;28;20183;-51
2022/11/10 00:29:40;;;;;;;1.90;1.50;;;17.90;69.70;19.00;101001.00;;;;5008234;28;20178;-49
2022/11/10 00:32:06;;;;;;;1.60;1.50;;;17.90;69.70;19.00;100997.00;;;;5007577;28;20171;-51
2022/11/10 00:34:32;;;;;;;1.67;1.57;;;17.90;69.60;19.00;100998.00;;;;5007917;28;20294;-51
2022/11/10 00:36:57;;;;;;;1.53;1.40;;;17.90;69.70;19.00;100994.00;;;;5007511;28;20715;-51
2022/11/10 00:39:23;;;;;;;1.70;1.53;;;17.90;69.80;19.00;101002.00;;;;5007921;28;20203;-51
2022/11/10 00:41:49;;;;;;;1.73;1.63;;;17.90;69.70;19.00;100997.00;;;;5007616;28;20175;-50
2022/11/10 00:44:14;;;;;;;1.83;1.70;;;17.90;69.70;19.00;100998.00;;;;5008133;28;20198;-50
2022/11/10 00:46:40;;;;;;;2.90;1.37;;;17.90;69.70;19.00;101004.00;;;;4990225;28;20529;-50
2022/11/10 00:49:06;;;;;;;1.80;1.70;;;17.90;69.60;19.00;101007.00;;;;5007361;28;20206;-51
2022/11/10 00:51:32;;;;;;;1.60;1.50;;;17.80;69.50;19.00;101004.00;;;;4989833;28;20265;-51
2022/11/10 00:53:57;;;;;;;1.73;1.57;;;17.80;69.50;19.00;101011.00;;;;5007459;28;20280;-51
2022/11/10 00:56:23;;;;;;;1.60;1.50;;;17.80;69.60;19.00;101018.00;;;;5007973;28;20242;-51
2022/11/10 00:58:49;;;;;;;1.90;1.67;;;17.80;69.60;18.90;101025.00;;;;5007725;28;20716;-51
2022/11/10 01:01:15;;;;;;;1.53;1.43;;;17.80;69.60;18.90;101026.00;;;;5007275;28;20657;-51
2022/11/10 01:03:41;;;;;;;1.60;1.50;;;17.80;69.60;18.90;101026.00;;;;5007500;28;20282;-50
2022/11/10 01:06:12;;;;;;;2.10;1.70;;;17.80;69.60;18.90;101025.00;;;;5007629;28;20233;-51
2022/11/10 01:08:38;;;;;;;1.93;1.40;;;17.80;69.50;18.90;101028.00;;;;5007635;28;20183;-51
2022/11/10 01:11:07;;;;;;;2.10;1.50;;;17.80;69.50;18.90;101023.00;;;;5007544;28;20172;-51
2022/11/10 01:13:33;;;;;;;1.50;1.40;;;17.80;69.60;18.90;101027.00;;;;5007132;28;20192;-51
2022/11/10 01:16:08;;;;;;;1.70;1.60;;;17.80;69.60;18.90;101025.00;;;;4989808;28;20274;-50
2022/11/10 01:18:34;;;;;;;1.50;1.40;;;17.70;69.50;18.70;101029.00;;;;5007412;28;20187;-50
2022/11/10 01:21:00;;;;;;;1.50;1.40;;;17.80;69.60;18.90;101040.00;;;;5007472;28;20179;-50
2022/11/10 01:23:26;;;;;;;1.70;1.57;;;17.80;69.60;18.90;101038.00;;;;5007501;28;20192;-50
2022/11/10 01:25:56;;;;;;;2.30;1.37;;;17.80;69.70;18.90;101050.00;;;;5007491;28;20156;-50
2022/11/10 01:28:21;;;;;;;1.40;1.30;;;17.70;69.60;18.80;101050.00;;;;5007895;28;20549;-49
2022/11/10 01:30:47;;;;;;;1.63;1.53;;;17.70;69.50;18.90;101053.00;;;;5010845;28;20171;-50
2022/11/10 01:33:13;;;;;;;1.40;1.30;;;17.70;69.50;18.80;101055.00;;;;5010930;28;20238;-49
2022/11/10 01:35:38;;;;;;;2.23;1.70;;;17.70;69.60;18.60;101041.00;;;;5011006;28;20442;-49
2022/11/10 01:38:04;;;;;;;1.30;1.17;;;17.70;70.30;18.80;101045.00;;;;5010650;28;20627;-51
2022/11/10 01:40:30;;;;;;;1.50;1.40;;;17.70;69.60;18.80;101054.00;;;;5011001;28;20179;-50
2022/11/10 01:42:57;;;;;;;1.73;1.60;;;17.70;69.60;18.80;101057.00;;;;4993260;28;20191;-51
2022/11/10 01:45:22;;;;;;;1.60;1.50;;;17.70;69.60;18.80;101062.00;;;;5011068;28;20175;-49
2022/11/10 01:47:56;;;;;;;1.63;1.40;;;17.60;69.50;18.80;101061.00;;;;5012809;28;20595;-51
2022/11/10 01:50:25;;;;;;;1.47;1.40;;;17.60;69.50;18.80;101069.00;;;;4994676;28;20246;-51
2022/11/10 01:52:52;;;;;;;1.40;1.30;;;17.60;69.50;18.80;101060.00;;;;5011489;28;20233;-51
2022/11/10 01:55:17;;;;;;;1.40;1.30;;;17.70;69.60;18.80;101056.00;;;;4992728;28;20436;-51
2022/11/10 01:57:43;;;;;;;2.87;1.47;;;17.60;69.50;18.80;101066.00;;;;4992554;28;20606;-51
2022/11/10 02:00:10;;;;;;;1.47;1.37;;;17.60;69.50;18.80;101055.00;;;;5010077;28;20655;-51
2022/11/10 02:02:41;;;;;;;1.67;1.57;;;17.60;69.60;18.80;101068.00;;;;5009887;28;20544;-50
2022/11/10 02:05:07;;;;;;;1.43;1.33;;;17.60;69.50;18.80;101061.00;;;;4992889;28;20170;-51
2022/11/10 02:07:33;;;;;;;1.63;1.53;;;17.70;69.60;18.80;101072.00;;;;4992725;28;20258;-49
2022/11/10 02:10:01;;;;;;;1.67;1.57;;;17.60;69.50;18.80;101079.00;;;;4992415;28;20311;-51
2022/11/10 02:12:38;;;;;;;1.60;1.50;;;17.60;69.50;18.80;101081.00;;;;5009806;28;20179;-50
2022/11/10 02:15:05;;;;;;;1.73;1.60;;;17.60;69.50;18.70;101090.00;;;;4993694;28;20183;-51
2022/11/10 02:17:31;;;;;;;1.33;1.23;;;17.60;69.50;18.70;101083.00;;;;4992340;28;20270;-50
2022/11/10 02:20:03;;;;;;;1.77;1.43;;;17.60;69.50;18.70;101068.00;;;;5009960;28;20250;-51
2022/11/10 02:22:32;;;;;;;1.67;1.43;;;17.60;69.50;18.70;101092.00;;;;4992651;28;20168;-50
2022/11/10 02:24:57;;;;;;;1.30;1.30;;;17.60;69.60;18.70;101086.00;;;;5010137;28;20221;-50
2022/11/10 02:27:23;;;;;;;1.20;1.20;;;17.60;69.50;18.70;101094.00;;;;5010916;28;20195;-51
2022/11/10 02:29:49;;;;;;;1.53;1.40;;;17.60;69.60;18.70;101099.00;;;;5012317;28;20545;-51
2022/11/10 02:32:15;;;;;;;1.70;1.60;;;17.50;69.40;18.70;101096.00;;;;5012036;28;20167;-50
2022/11/10 02:34:41;;;;;;;1.80;1.70;;;17.60;69.50;18.70;101110.00;;;;5012177;28;20765;-50
2022/11/10 02:37:08;;;;;;;1.83;1.60;;;17.50;69.40;18.70;101103.00;;;;4992033;28;20222;-52
2022/11/10 02:39:33;;;;;;;1.70;1.60;;;17.50;69.40;18.70;101108.00;;;;5009558;28;20210;-51
2022/11/10 02:41:59;;;;;;;1.50;1.40;;;17.50;69.40;18.70;101104.00;;;;5009113;28;20258;-49
2022/11/10 02:44:25;;;;;;;1.33;1.23;;;17.50;69.40;18.70;101100.00;;;;5009309;28;20192;-51
2022/11/10 02:46:50;;;;;;;1.57;1.47;;;17.50;69.40;18.70;101105.00;;;;5009441;28;20191;-50
2022/11/10 02:49:16;;;;;;;1.43;1.33;;;17.50;69.40;18.60;101103.00;;;;5009421;28;20539;-52
2022/11/10 02:51:42;;;;;;;1.60;1.50;;;17.50;69.40;18.70;101110.00;;;;4991638;28;20702;-51
2022/11/10 02:54:08;;;;;;;1.53;1.43;;;17.50;69.40;18.60;101117.00;;;;5009123;28;20210;-50
2022/11/10 02:56:34;;;;;;;1.60;1.50;;;17.50;69.40;18.60;101117.00;;;;5009211;28;20155;-50
2022/11/10 02:59:00;;;;;;;1.50;1.40;;;17.50;69.40;18.60;101107.00;;;;5009180;28;20264;-50
2022/11/10 03:01:26;;;;;;;1.30;1.20;;;17.50;69.40;18.60;101115.00;;;;5009208;28;20175;-51
2022/11/10 03:03:51;;;;;;;1.50;1.40;;;17.50;69.50;18.60;101113.00;;;;5009105;28;20612;-51
2022/11/10 03:06:17;;;;;;;1.40;1.30;;;17.40;69.40;18.60;101118.00;;;;5009673;28;20232;-50
2022/11/10 03:08:43;;;;;;;1.40;1.30;;;17.50;69.40;18.60;101129.00;;;;5009329;28;20179;-51
2022/11/10 03:11:09;;;;;;;1.50;1.40;;;17.40;69.40;18.60;101129.00;;;;4991702;28;20180;-50
2022/11/10 03:13:34;;;;;;;1.60;1.50;;;17.50;69.50;18.60;101141.00;;;;5009289;28;20197;-51
2022/11/10 03:16:00;;;;;;;1.87;1.50;;;17.40;69.40;18.60;101135.00;;;;5009144;28;20191;-51
2022/11/10 03:18:26;;;;;;;1.63;1.53;;;17.40;69.30;18.60;101140.00;;;;5009168;28;20322;-50
2022/11/10 03:20:51;;;;;;;1.30;1.20;;;17.40;69.30;18.60;101148.00;;;;5009140;28;20172;-51
2022/11/10 03:23:17;;;;;;;1.40;1.40;;;17.40;69.40;18.60;101157.00;;;;5008766;28;20193;-51
2022/11/10 03:25:43;;;;;;;1.50;1.40;;;17.40;69.30;18.50;101164.00;;;;5008570;28;20176;-51
2022/11/10 03:28:09;;;;;;;1.50;1.40;;;17.40;69.30;18.50;101154.00;;;;5008963;28;20187;-51
2022/11/10 03:30:35;;;;;;;1.60;1.50;;;17.40;69.40;18.50;101145.00;;;;5008816;28;20187;-49
2022/11/10 03:33:00;;;;;;;1.63;1.40;;;17.40;69.40;18.50;101148.00;;;;5008500;28;20215;-50
2022/11/10 03:35:26;;;;;;;1.37;1.27;;;17.30;69.40;18.50;101142.00;;;;5008734;28;20240;-49
2022/11/10 03:37:52;;;;;;;2.00;1.50;;;17.30;69.40;18.50;101144.00;;;;5008009;28;20227;-51
2022/11/10 03:40:18;;;;;;;2.00;1.47;;;17.30;69.40;18.50;101146.00;;;;5008336;28;20172;-51
2022/11/10 03:42:44;;;;;;;1.60;1.50;;;17.40;69.60;18.50;101157.00;;;;5008338;28;20227;-50
2022/11/10 03:45:13;;;;;;;2.00;1.47;;;17.30;69.50;18.50;101164.00;;;;5008472;28;20338;-50
2022/11/10 03:47:39;;;;;;;2.20;1.40;;;17.30;69.50;18.50;101159.00;;;;4991360;28;20264;-51
2022/11/10 03:50:06;;;;;;;2.60;1.57;;;17.30;69.50;18.50;101160.00;;;;5008342;28;20190;-50
2022/11/10 03:52:32;;;;;;;3.43;1.40;;;17.30;69.60;18.20;101155.00;;;;5007455;28;20172;-50
2022/11/10 03:54:58;;;;;;;2.00;1.40;;;17.30;69.60;18.40;101164.00;;;;5008238;28;20194;-51
2022/11/10 03:57:23;;;;;;;6.23;1.70;;;17.30;69.60;18.40;101177.00;;;;5008694;28;20181;-50
2022/11/10 03:59:49;;;;;;;5.93;1.60;;;17.30;69.80;18.40;101181.00;;;;5008342;28;20491;-50
2022/11/10 04:02:15;;;;;;;2.73;1.50;;;17.30;70.10;18.40;101197.00;;;;5008030;28;20167;-50
2022/11/10 04:10:09;;;;;;;3.63;1.60;;;17.30;69.70;18.40;101203.00;;;;5008064;28;20189;-50
2022/11/10 04:18:23;;;;;;;1.90;1.67;;;17.20;69.60;18.40;101198.00;;;;5008061;28;20205;-49
2022/11/10 04:20:50;;;;;;;2.13;1.50;;;17.30;69.70;18.30;101201.00;;;;5008014;28;20159;-49
2022/11/10 04:23:29;;;;;;;1.30;1.20;;;17.20;69.60;18.30;101200.00;;;;5007553;28;20486;-49
2022/11/10 04:29:14;;;;;;;4.10;1.60;;;17.20;69.50;18.30;101219.00;;;;5007869;28;20229;-48
2022/11/10 04:31:40;;;;;;;2.40;1.63;;;17.20;69.50;18.30;101228.00;;;;5007464;28;20193;-50
2022/11/10 04:34:11;;;;;;;1.80;1.70;;;17.20;69.50;18.30;101233.00;;;;5007630;28;20198;-49
2022/11/10 04:36:40;;;;;;;1.57;1.43;;;17.10;69.40;18.30;101233.00;;;;4987882;28;20274;-49
2022/11/10 04:39:06;;;;;;;1.40;1.30;;;17.10;69.40;18.30;101236.00;;;;5007259;28;20205;-50
2022/11/10 04:41:32;;;;;;;1.50;1.40;;;17.20;69.50;18.30;101234.00;;;;5007101;28;20159;-48
2022/11/10 04:43:58;;;;;;;3.23;1.63;;;17.10;69.40;18.30;101252.00;;;;5006529;28;20213;-49
2022/11/10 04:46:27;;;;;;;3.63;1.50;;;17.10;69.50;18.30;101247.00;;;;5006210;28;20182;-50
2022/11/10 04:48:53;;;;;;;3.63;1.50;;;17.10;69.50;18.20;101246.00;;;;5008503;28;20186;-48
2022/11/10 04:51:23;;;;;;;2.47;1.70;;;17.10;69.50;18.20;101242.00;;;;5008359;28;20258;-48
2022/11/10 04:53:49;;;;;;;3.00;1.60;;;17.20;69.50;18.20;101251.00;;;;5009083;28;20853;-50
2022/11/10 04:56:16;;;;;;;3.10;1.40;;;17.20;70.30;18.20;101247.00;;;;5010945;28;20186;-50
2022/11/10 04:58:42;;;;;;;3.10;1.40;;;17.20;69.40;18.20;101261.00;;;;4993109;28;20628;-50
2022/11/10 05:01:11;;;;;;;3.47;1.73;;;17.10;69.30;18.20;101268.00;;;;5010670;28;20207;-49
2022/11/10 05:03:37;;;;;;;6.40;2.10;;;17.10;69.40;18.20;101270.00;;;;4991875;28;20221;-49
2022/11/10 05:06:02;;;;;;;8.13;2.50;;;17.10;69.40;18.20;101278.00;;;;5011985;28;20518;-50
2022/11/10 05:08:28;;;;;;;10.67;2.87;;;17.10;69.40;18.20;101272.00;;;;5011996;28;20178;-50
2022/11/10 05:10:54;;;;;;;13.93;3.10;;;17.10;69.50;18.20;101288.00;;;;5011886;28;20174;-49
2022/11/10 05:13:19;;;;;;;8.43;2.47;;;17.00;69.20;18.20;101287.00;;;;5011568;28;20557;-49
2022/11/10 05:15:45;;;;;;;12.83;3.03;;;17.10;69.30;18.20;101275.00;;;;5011563;28;20178;-49
2022/11/10 05:18:11;;;;;;;11.37;2.60;;;17.10;69.30;18.20;101288.00;;;;4994547;28;20201;-49
2022/11/10 05:20:37;;;;;;;10.50;2.80;;;17.10;69.20;18.20;101293.00;;;;5010915;28;20167;-49
2022/11/10 05:25:46;;;;;;;10.60;3.13;;;17.10;69.20;18.20;101294.00;;;;5010612;28;20163;-50
2022/11/10 05:28:12;;;;;;;11.20;2.60;;;17.00;69.20;18.20;101306.00;;;;5011101;28;20167;-49
2022/11/10 05:30:38;;;;;;;10.40;2.97;;;17.00;69.20;18.10;101305.00;;;;5011875;28;20563;-49
2022/11/10 05:33:05;;;;;;;9.77;2.80;;;17.00;69.20;18.10;101323.00;;;;5010409;28;20650;-51
2022/11/10 05:35:31;;;;;;;8.57;2.57;;;17.00;69.30;18.10;101312.00;;;;5009941;28;20190;-50
2022/11/10 05:37:56;;;;;;;9.13;2.80;;;17.00;69.30;17.90;101317.00;;;;5011044;28;20209;-50
2022/11/10 05:40:22;;;;;;;8.90;2.87;;;17.00;69.80;18.10;101325.00;;;;5011673;28;20174;-50
2022/11/10 05:42:52;;;;;;;11.50;2.73;;;17.00;69.40;18.10;101324.00;;;;4993909;28;20553;-49
2022/11/10 05:45:20;;;;;;;7.07;2.57;;;17.00;69.40;18.10;101327.00;;;;5011390;28;20724;-50
2022/11/10 05:47:46;;;;;;;8.53;2.57;;;17.00;69.40;18.10;101323.00;;;;5011234;28;20178;-49
2022/11/10 05:50:11;;;;;;;9.97;2.90;;;17.00;69.40;18.10;101331.00;;;;5007400;28;20272;-50
2022/11/10 05:52:46;;;;;;;7.47;2.70;;;17.00;69.50;18.10;101339.00;;;;5009054;28;20178;-48
2022/11/10 05:55:14;;;;;;;7.70;2.77;;;17.00;69.50;18.10;101334.00;;;;5010961;28;20199;-49
2022/11/10 05:57:46;;;;;;;4.73;2.33;;;16.90;69.40;18.10;101338.00;;;;5011240;28;20178;-49
2022/11/10 06:00:14;;;;;;;5.50;2.30;;;17.00;69.60;18.10;101348.00;;;;5011109;28;20210;-50
2022/11/10 06:02:39;;;;;;;6.20;2.30;;;16.90;69.40;18.00;101345.00;;;;5010600;28;20636;-49
2022/11/10 06:05:06;;;;;;;5.80;2.37;;;16.90;69.50;18.00;101343.00;;;;5010369;28;20236;-49
2022/11/10 06:07:32;;;;;;;7.23;2.50;;;16.90;69.50;18.00;101350.00;;;;5011101;28;20193;-48
2022/11/10 06:09:57;;;;;;;7.83;2.20;;;16.90;69.40;18.00;101358.00;;;;5010969;28;20690;-50
2022/11/10 06:12:24;;;;;;;5.13;2.23;;;16.90;69.50;18.00;101368.00;;;;5010375;28;20701;-50
2022/11/10 06:14:50;;;;;;;5.63;2.40;;;16.90;69.50;18.00;101363.00;;;;5009887;28;20781;-50
2022/11/10 06:17:17;;;;;;;4.27;2.67;;;16.90;69.60;18.00;101368.00;;;;5010619;28;20625;-49
2022/11/10 06:19:43;;;;;;;5.13;2.20;;;16.90;69.60;18.00;101372.00;;;;5010481;28;20229;-49
2022/11/10 06:22:09;;;;;;;6.27;2.20;;;16.90;69.60;18.00;101377.00;;;;5009329;28;20177;-50
2022/11/10 06:24:34;;;;;;;4.53;2.37;;;16.90;69.60;18.00;101373.00;;;;5010031;28;20245;-49
2022/11/10 06:27:00;;;;;;;5.87;2.30;;;16.90;69.60;18.00;101376.00;;;;5010865;28;20271;-49
2022/11/10 06:29:26;;;;;;;3.27;2.13;;;16.90;69.60;18.00;101386.00;;;;5014801;28;20804;-49
2022/11/10 06:31:51;;;;;;;6.43;2.27;;;16.90;69.60;18.00;101395.00;;;;5012781;28;20174;-50
2022/11/10 06:34:17;;;;;;;4.43;2.27;;;16.80;69.40;18.00;101384.00;;;;5009344;28;20205;-50
2022/11/10 06:36:43;;;;;;;5.80;2.20;;;16.90;69.60;18.00;101389.00;;;;5010483;28;20634;-50
2022/11/10 06:39:09;;;;;;;4.57;2.40;;;16.80;69.50;18.00;101402.00;;;;5009419;28;20217;-49
2022/11/10 06:41:34;;;;;;;4.53;2.40;;;16.90;69.50;17.90;101389.00;;;;5008679;28;20779;-51
2022/11/10 06:44:00;;;;;;;3.83;2.20;;;16.80;69.40;17.90;101409.00;;;;5010066;28;20204;-48
2022/11/10 06:46:26;;;;;;;5.30;2.13;;;16.90;69.60;17.90;101407.00;;;;5010257;28;20178;-52
2022/11/10 06:48:51;;;;;;;3.77;2.30;;;16.80;69.40;17.90;101407.00;;;;5010180;28;20179;-50
2022/11/10 06:51:17;;;;;;;4.03;2.30;;;16.80;69.40;17.90;101418.00;;;;5009888;28;20189;-48
2022/11/10 06:53:43;;;;;;;3.50;1.90;;;16.80;69.50;17.90;101414.00;;;;5009731;28;20192;-51
2022/11/10 06:56:09;;;;;;;4.33;2.10;;;16.80;69.40;17.90;101433.00;;;;5010100;28;20580;-50
2022/11/10 06:58:34;;;;;;;3.33;2.10;;;16.80;69.40;17.90;101427.00;;;;5010023;28;20728;-50
2022/11/10 07:01:00;;;;;;;3.20;1.90;;;16.80;69.40;17.90;101437.00;;;;5009783;28;20185;-51
2022/11/10 07:03:26;;;;;;;3.57;2.27;;;16.80;69.40;17.90;101445.00;;;;4991737;28;20237;-49
2022/11/10 07:05:52;;;;;;;2.20;1.83;;;16.80;69.40;17.90;101449.00;;;;5009532;28;20202;-48
2022/11/10 07:08:18;;;;;;;3.37;2.17;;;16.80;69.40;17.90;101455.00;;;;4992351;28;20234;-49
2022/11/10 07:10:51;;;;;;;4.93;2.30;;;16.80;69.50;17.90;101460.00;;;;5009810;28;20623;-48
2022/11/10 07:13:17;;;;;;;4.40;2.03;;;16.70;69.40;17.90;101455.00;;;;4992116;28;20210;-50
2022/11/10 07:15:43;;;;;;;2.87;2.07;;;16.70;69.30;17.90;101461.00;;;;5009168;28;20179;-50
2022/11/10 07:18:08;;;;;;;3.97;2.30;;;16.80;69.40;17.90;101468.00;;;;5009747;28;20204;-50
2022/11/10 07:20:34;;;;;;;4.43;2.00;;;16.80;69.50;17.90;101468.00;;;;5008412;28;20182;-49
2022/11/10 07:23:01;;;;;;;4.63;2.07;;;16.70;69.40;17.80;101471.00;;;;5009307;28;20805;-50
2022/11/10 07:25:28;;;;;;;2.87;1.90;;;16.80;69.60;17.80;101472.00;;;;5009185;28;20161;-51
2022/11/10 07:27:55;;;;;;;3.33;2.10;;;16.70;69.40;17.80;101482.00;;;;5009205;28;20202;-48
2022/11/10 07:30:21;;;;;;;3.37;2.00;;;16.70;69.40;17.80;101475.00;;;;5009367;28;20183;-50
2022/11/10 07:32:59;;;;;;;4.37;1.97;;;16.70;69.40;17.80;101493.00;;;;5009330;28;20270;-49
2022/11/10 07:35:27;;;;;;;2.57;1.57;;;16.70;69.70;17.80;101498.00;;;;5008971;28;20189;-50
2022/11/10 07:37:54;;;;;;;2.57;2.10;;;16.70;69.50;17.80;101504.00;;;;5008641;28;20232;-48
2022/11/10 07:40:20;;;;;;;5.63;2.43;;;16.70;69.50;17.80;101502.00;;;;5009487;28;20185;-49
2022/11/10 07:42:46;;;;;;;9.23;2.37;;;16.70;69.80;17.80;101510.00;;;;5009412;28;20185;-49
2022/11/10 07:45:12;;;;;;;11.47;2.37;;;16.70;69.70;17.80;101500.00;;;;5009317;28;20177;-49
2022/11/10 07:47:37;;;;;;;7.57;2.10;;;16.80;70.00;17.80;101517.00;;;;5009087;28;20172;-49
2022/11/10 07:50:04;;;;;;;5.27;2.10;;;16.70;70.00;17.70;101514.00;;;;4994838;28;20182;-50
2022/11/10 07:52:29;;;;;;;6.00;2.20;;;16.80;70.00;17.80;101517.00;;;;4971007;28;20270;-49
2022/11/10 07:54:55;;;;;;;5.50;2.13;;;16.80;70.20;17.80;101504.00;;;;4981829;28;20996;-49
2022/11/10 07:57:21;;;;;;;6.03;2.30;;;16.70;70.10;17.80;101518.00;;;;4982179;28;20334;-50
2022/11/10 07:59:46;;;;;;;8.20;2.40;;;16.80;70.10;17.80;101515.00;;;;4983986;28;20211;-50
2022/11/10 08:02:12;;;;;;;7.57;2.33;;;16.80;70.10;17.80;101527.00;;;;4982895;28;20660;-50
2022/11/10 08:04:38;;;;;;;4.63;2.37;;;16.70;70.00;17.80;101532.00;;;;4983685;28;20994;-48
2022/11/10 08:07:04;;;;;;;5.37;2.20;;;16.70;70.00;17.80;101563.00;;;;4983576;28;20207;-49
2022/11/10 08:09:29;;;;;;;5.43;2.27;;;16.70;70.00;17.80;101547.00;;;;4983632;28;20267;-49
2022/11/10 08:11:55;;;;;;;15.83;2.30;;;16.70;70.00;17.80;101542.00;;;;4987393;28;20178;-50
2022/11/10 08:14:21;;;;;;;9.33;2.80;;;16.60;70.50;17.80;101555.00;;;;5007372;28;20683;-49
2022/11/10 08:16:47;;;;;;;6.93;2.40;;;16.60;70.30;17.80;101549.00;;;;5007897;28;20193;-50
2022/11/10 08:19:12;;;;;;;8.20;2.63;;;16.70;70.20;17.80;101551.00;;;;5008372;28;20202;-50
2022/11/10 08:21:38;;;;;;;10.33;2.50;;;16.70;70.10;17.80;101555.00;;;;5007733;28;20206;-51
2022/11/10 08:24:04;;;;;;;6.90;2.27;;;16.70;70.10;17.80;101560.00;;;;5008335;28;20556;-49
2022/11/10 08:26:30;;;;;;;7.00;2.27;;;16.70;70.10;17.80;101555.00;;;;5009438;28;20177;-50
2022/11/10 08:28:55;;;;;;;6.67;2.33;;;16.70;70.10;17.80;101567.00;;;;5009089;28;20173;-50
2022/11/10 08:31:21;;;;;;;9.77;2.80;;;16.70;70.10;17.80;101578.00;;;;5008709;28;20191;-50
2022/11/10 08:33:47;;;;;;;6.47;2.03;;;16.70;70.20;17.80;101578.00;;;;5008303;28;20192;-50
2022/11/10 08:36:13;;;;;;;6.73;2.50;;;16.70;70.20;17.80;101582.00;;;;5008433;28;20230;-48
2022/11/10 08:38:39;;;;;;;9.77;2.50;;;16.70;70.10;17.80;101587.00;;;;5011261;28;20469;-49
2022/11/10 08:41:04;;;;;;;4.17;2.40;;;16.70;70.10;17.80;101586.00;;;;5012504;28;20188;-49
2022/11/10 08:43:30;;;;;;;6.30;2.47;;;16.70;70.10;17.80;101583.00;;;;5012420;28;20197;-49
2022/11/10 08:45:56;;;;;;;5.50;2.37;;;16.70;70.10;17.80;101591.00;;;;5012543;28;20189;-50
2022/11/10 08:48:22;;;;;;;6.70;2.40;;;16.60;70.00;17.80;101596.00;;;;5012927;28;20171;-50
2022/11/10 08:50:51;;;;;;;5.47;2.03;;;16.70;70.10;17.80;101586.00;;;;5011407;28;20173;-50
2022/11/10 08:53:19;;;;;;;4.40;2.40;;;16.70;70.10;17.80;101594.00;;;;5012582;28;20202;-50
2022/11/10 08:55:45;;;;;;;4.67;2.20;;;16.70;70.10;17.80;101597.00;;;;4994930;28;20278;-50
2022/11/10 08:58:15;;;;;;;4.10;2.03;;;16.60;69.90;17.80;101599.00;;;;5012446;28;20732;-50
2022/11/10 09:00:41;;;;;;;4.07;2.10;;;16.70;70.00;17.70;101606.00;;;;5011447;28;20206;-50
2022/11/10 09:03:17;;;;;;;6.10;2.50;;;16.70;70.00;17.80;101621.00;;;;5012063;28;20660;-50
2022/11/10 09:05:43;;;;;;;4.70;2.10;;;16.70;70.00;17.70;101606.00;;;;5011288;28;20163;-50
2022/11/10 09:08:09;;;;;;;3.20;2.10;;;16.70;70.00;17.70;101620.00;;;;5012354;28;20180;-49
2022/11/10 09:10:40;;;;;;;3.33;2.10;;;16.60;69.90;17.70;101624.00;;;;5012727;28;20179;-50
2022/11/10 09:13:06;;;;;;;5.03;2.10;;;16.60;70.00;17.70;101631.00;;;;5011013;28;20193;-50
2022/11/10 09:15:32;;;;;;;3.87;2.20;;;16.60;69.90;17.70;101631.00;;;;5012210;28;20196;-50
2022/11/10 09:18:02;;;;;;;3.27;2.07;;;16.60;70.00;17.70;101624.00;;;;5010565;28;20240;-49
2022/11/10 09:20:29;;;;;;;4.63;2.20;;;16.60;70.00;17.70;101626.00;;;;5012059;28;20216;-50
2022/11/10 09:22:55;;;;;;;3.87;2.07;;;16.60;70.00;17.70;101618.00;;;;5011644;28;20185;-50
2022/11/10 09:25:21;;;;;;;2.73;1.90;;;16.60;70.00;17.70;101622.00;;;;5011920;28;20196;-50
2022/11/10 09:27:47;;;;;;;4.30;2.07;;;16.60;70.00;17.70;101624.00;;;;5011912;28;20529;-50
2022/11/10 09:30:12;;;;;;;4.13;1.90;;;16.60;70.00;17.70;101629.00;;;;5012102;28;20164;-50
2022/11/10 09:32:38;;;;;;;3.37;2.00;;;16.70;70.10;17.70;101623.00;;;;5012142;28;20276;-49
2022/11/10 09:35:04;;;;;;;3.80;2.23;;;16.70;70.10;17.70;101626.00;;;;5012175;28;20182;-50
2022/11/10 09:37:30;;;;;;;3.23;1.83;;;16.60;70.00;17.70;101632.00;;;;5012103;28;20168;-50
2022/11/10 09:39:56;;;;;;;3.97;1.87;;;16.60;70.00;17.70;101645.00;;;;5010479;28;20197;-50
2022/11/10 09:42:37;;;;;;;3.13;2.03;;;16.60;70.00;17.70;101636.00;;;;5011571;28;20181;-50
2022/11/10 09:45:25;;;;;;;3.03;2.10;;;16.70;70.10;17.70;101631.00;;;;5010506;28;20153;-49
2022/11/10 09:48:00;;;;;;;3.63;1.80;;;16.70;70.20;17.70;101629.00;;;;5010439;28;20178;-50
2022/11/10 09:50:51;;;;;;;2.87;1.90;;;16.70;71.00;17.70;101647.00;;;;5009625;28;20177;-49
2022/11/10 09:53:42;;;;;;;4.10;2.20;;;16.60;70.10;17.70;101616.00;;;;5009708;28;20203;-50
2022/11/10 09:56:15;;;;;;;2.23;1.87;;;16.70;70.20;17.70;101647.00;;;;4988482;28;20197;-49
2022/11/10 09:58:42;;;;;;;2.70;1.87;;;16.60;70.10;17.70;101649.00;;;;5010232;28;20202;-49
2022/11/10 10:01:26;;;;;;;4.10;2.07;;;16.70;70.30;17.70;101647.00;;;;5010108;28;20163;-49
2022/11/10 10:04:04;;;;;;;4.03;2.10;;;16.60;70.20;17.60;101665.00;;;;5011150;28;20564;-49
2022/11/10 10:06:30;;;;;;;2.93;2.00;;;16.60;70.30;17.70;101652.00;;;;5010240;28;20181;-50
2022/11/10 10:09:35;;;;;;;2.20;1.80;;;16.60;70.30;17.60;101657.00;;;;5009694;28;20619;-50
2022/11/10 10:12:28;;;;;;;3.47;1.93;;;16.60;70.30;17.60;101659.00;;;;5009816;28;20640;-50
2022/11/10 10:15:34;;;;;;;3.10;1.90;;;16.60;70.40;17.60;101657.00;;;;5010793;28;20283;-50
2022/11/10 10:18:24;;;;;;;2.13;1.93;;;16.60;70.40;17.60;101643.00;;;;5011349;28;20280;-50
2022/11/10 10:21:15;;;;;;;2.50;1.90;;;16.70;70.50;17.60;101661.00;;;;5010135;28;20204;-50
2022/11/10 10:23:52;;;;;;;2.13;1.80;;;16.60;70.40;17.60;101667.00;;;;5009688;28;20198;-50
2022/11/10 10:26:24;;;;;;;5.00;2.10;;;16.60;70.40;17.70;101659.00;;;;5010112;28;20409;-50
2022/11/10 10:28:50;;;;;;;2.17;1.87;;;16.70;70.50;17.70;101655.00;;;;5009445;28;20721;-50
2022/11/10 10:31:27;;;;;;;3.47;2.27;;;16.60;70.50;17.70;101669.00;;;;5009536;28;20295;-50
2022/11/10 10:33:53;;;;;;;3.40;2.00;;;16.70;70.60;17.70;101674.00;;;;5010824;28;20193;-50
2022/11/10 10:36:24;;;;;;;2.90;2.00;;;16.70;70.70;17.70;101674.00;;;;5009585;28;20167;-49
2022/11/10 10:38:53;;;;;;;3.63;2.07;;;16.70;70.70;17.70;101667.00;;;;5009391;28;20247;-50
2022/11/10 10:41:27;;;;;;;2.37;1.83;;;16.70;70.70;17.60;101665.00;;;;5009211;28;20185;-50
2022/11/10 10:43:58;;;;;;;3.37;1.90;;;16.70;70.70;17.60;101678.00;;;;5010442;28;20691;-50
2022/11/10 10:46:30;;;;;;;2.87;1.80;;;16.70;70.90;17.70;101662.00;;;;5009475;28;20539;-49
2022/11/10 10:49:13;;;;;;;2.53;1.90;;;16.70;70.90;17.70;101663.00;;;;5009214;28;20166;-50
2022/11/10 10:51:39;;;;;;;3.60;2.30;;;16.70;70.90;17.70;101654.00;;;;5010313;28;20171;-49
2022/11/10 10:54:30;;;;;;;4.57;2.20;;;16.70;70.90;17.70;101666.00;;;;5008636;28;20512;-49
2022/11/10 10:57:22;;;;;;;3.57;2.10;;;16.70;71.00;17.70;101656.00;;;;5009195;28;20243;-50
2022/11/10 10:59:47;;;;;;;3.43;1.90;;;16.70;71.00;17.70;101655.00;;;;5009500;28;20190;-49
2022/11/10 11:02:31;;;;;;;3.10;1.90;;;16.70;71.10;17.70;101631.00;;;;5008791;28;20260;-50
2022/11/10 11:05:17;;;;;;;3.80;1.93;;;16.70;71.00;17.70;101641.00;;;;5008732;28;20205;-49
2022/11/10 11:07:57;;;;;;;3.80;2.10;;;16.70;71.20;17.70;101660.00;;;;5010113;28;20161;-49
2022/11/10 11:10:32;;;;;;;4.07;2.10;;;16.70;71.20;17.70;101662.00;;;;5010086;28;20636;-49